Date,TemperatureHighF,TemperatureAvgF,TemperatureLowF,DewpointHighF,DewpointAvgF,DewpointLowF,HumidityHigh,HumidityAvg,HumidityLow,PressureMaxIn,PressureMinIn,WindSpeedMaxMPH,WindSpeedAvgMPH,GustSpeedMaxMPH,PrecipitationSumIn
2014-2-1,38.1,29.0,18.3,35.0,23.5,14.0,100,81,44,30.00,29.63,9,2,9,0.00
2014-2-2,40.3,34.5,30.2,40.0,34.6,24.0,100,99,67,29.87,29.56,11,2,12,0.16
2014-2-3,30.4,23.1,16.9,29.0,21.2,16.0,100,91,72,30.04,29.85,15,4,16,0.00
2014-2-4,35.8,21.1,11.7,21.0,17.1,14.0,100,85,43,30.17,30.03,9,2,9,0.00
2014-2-5,21.2,17.8,12.4,21.0,18.5,14.0,100,100,98,30.03,29.49,22,6,26,0.00
2014-2-6,22.2,11.2,3.3,16.0,10.7,4.0,100,94,64,30.00,29.79,13,2,14,0.00
2014-2-7,32.7,15.4,5.9,16.0,11.1,4.0,100,81,44,29.91,29.83,13,3,15,0.05
2014-2-8,28.1,14.2,5.1,14.0,9.9,4.0,100,80,48,29.97,29.86,13,3,19,0.04
2014-2-9,31.4,15.3,1.3,21.0,13.8,4.0,100,91,51,29.87,29.65,9,1,9,0.01
2014-2-10,27.1,14.7,5.7,21.0,14.3,8.0,100,95,64,29.90,29.65,10,2,10,0.00
2014-2-11,21.3,7.1,-4.3,11.0,5.5,0.0,100,88,53,30.20,29.90,10,2,10,0.01
2014-2-12,27.5,3.1,-18.4,11.0,0.1,-13.0,100,83,37,30.29,30.04,7,1,9,0.00
2014-2-13,23.3,17.6,2.8,23.0,16.9,4.0,100,95,79,30.04,28.96,19,4,22,0.00
2014-2-14,33.9,26.8,21.9,31.0,24.0,21.0,100,88,69,29.41,28.78,27,4,27,0.03
2014-2-15,35.7,26.5,17.1,31.0,25.5,18.0,100,95,69,29.54,29.41,17,3,18,0.08
2014-2-16,36.5,15.6,3.6,18.0,8.7,0.0,100,74,32,29.78,29.44,9,2,12,0.03
2014-2-17,28.2,5.1,-9.9,8.0,0.1,-6.0,100,76,32,30.11,29.78,9,1,10,0.00
2014-2-18,28.5,13.7,-6.7,28.0,14.6,-6.0,100,99,82,30.01,29.68,6,1,7,0.00
2014-2-19,31.7,24.1,15.4,32.0,24.4,16.0,100,99,87,29.76,29.42,8,1,8,0.00
2014-2-20,47.2,34.5,20.9,37.0,30.9,21.0,100,87,55,29.88,29.77,10,2,10,0.17
2014-2-21,38.4,35.3,32.0,31.0,14.5,4.0,89,43,24,29.77,29.34,7,1,7,0.83
2014-2-22,48.9,42.2,27.9,35.0,22.7,8.0,100,47,22,29.64,29.50,26,4,26,0.01
2014-2-23,52.7,41.8,31.6,31.0,20.5,11.0,93,42,25,29.64,29.52,13,2,13,0.00
2014-2-24,29.4,21.8,16.4,16.0,11.0,4.0,70,59,43,29.66,29.49,16,2,17,0.00
2014-2-25,23.7,16.4,9.5,16.0,9.8,8.0,100,72,55,29.68,29.59,10,1,14,0.00
2014-2-26,25.6,13.5,4.2,16.0,5.5,0.0,100,68,38,29.57,29.46,13,2,16,0.00
2014-2-27,23.9,11.7,3.9,21.0,7.2,-6.0,100,78,48,29.65,29.24,13,3,16,0.00
2014-2-28,24.7,8.8,-1.2,8.0,-0.4,-6.0,99,63,30,30.12,29.65,10,1,11,0.01